Flight Track Log - Related Links

Times and Time Zones

All times are in EST time to prevent confusion due to time zone crossing. See the ASQ5740 flight status page for this flight to view local times or setup timezone preferences in your user account.

Time Position Orientation Groundspeed Altitude Reporting Facility
EST Latitude Longitude Course Direction KTS MPH feet Rate Location/Type
Mon 01:06:01 PM 38.9333 -77.5000 229° Southwest 172 198 1,700  Level Potomac TRACON
Mon 01:07:01 PM 38.9000 -77.5500 229° Southwest 258 297 4,000 2,750 Climbing Potomac TRACON
Mon 01:08:01 PM 38.8167 -77.5667 189° South 271 312 7,200 2,400 Climbing Potomac TRACON
Mon 01:10:31 PM 38.6414 -77.6517 201° Southwest 293 337 12,400 2,000 Climbing Washington Center
Mon 01:11:31 PM 38.5653 -77.7133 212° Southwest 314 361 14,200 1,736 Climbing Washington Center
Mon 01:12:32 PM 38.4911 -77.7747 213° Southwest 329 379 15,900 1,664 Climbing Washington Center
Mon 01:13:30 PM 38.4150 -77.8361 212° Southwest 329 379 17,500 1,525 Climbing Washington Center
Mon 01:14:30 PM 38.3408 -77.8947 212° Southwest 329 379 18,900 1,240 Climbing Washington Center
Mon 01:15:31 PM 38.2647 -77.9558 212° Southwest 329 379 20,000 992 Climbing Washington Center
Mon 01:16:31 PM 38.1861 -78.0194 212° Southwest 329 379 20,900 793 Climbing Washington Center
Mon 01:17:32 PM 38.1078 -78.0803 211° Southwest 329 379 21,600 744 Climbing Washington Center
Mon 01:18:32 PM 38.0167 -78.1536 212° Southwest 340 391 22,400 700 Climbing Washington Center
Mon 01:19:32 PM 37.9542 -78.2439 229° Southwest 340 391 23,000 661 Climbing Washington Center
Mon 01:20:30 PM 37.8981 -78.3311 231° Southwest 352 405 23,700 712 Climbing Washington Center
Mon 01:21:30 PM 37.8292 -78.4261 227° Southwest 359 413 24,400 700 Climbing Washington Center
Mon 01:22:30 PM 37.7644 -78.5156 228° Southwest 359 413 25,100 639 Climbing Washington Center
Mon 01:23:32 PM 37.6950 -78.6153 229° Southwest 359 413 25,700 443 Climbing Washington Center
Mon 01:24:32 PM 37.6214 -78.7197 228° Southwest 359 413 26,000 153 Climbing Washington Center
Mon 01:25:30 PM 37.5500 -78.8189 228° Southwest 369 425 26,000  Level Washington Center
Mon 01:26:30 PM 37.4783 -78.9233 229° Southwest 387 445 26,000  Level Washington Center
Mon 01:27:31 PM 37.4067 -79.0222 228° Southwest 393 452 26,000  Level Washington Center
Mon 01:28:31 PM 37.3350 -79.1233 228° Southwest 393 452 26,000  Level Washington Center
Mon 01:29:32 PM 37.2675 -79.2142 227° Southwest 393 452 26,000  Level Washington Center
Mon 01:30:30 PM 37.1975 -79.3178 230° Southwest 393 452 26,000  Level Washington Center
Mon 01:31:31 PM 37.1275 -79.4239 230° Southwest 399 459 26,000  Level Washington Center
Mon 01:32:32 PM 37.0553 -79.5294 229° Southwest 404 465 26,000  Level Washington Center
Mon 01:33:32 PM 36.9828 -79.6350 229° Southwest 404 465 26,000  Level Washington Center
Mon 01:34:30 PM 36.9058 -79.7531 231° Southwest 404 465 26,000  Level Washington Center
Mon 01:35:30 PM 36.8333 -79.8556 229° Southwest 404 465 26,000  Level Washington Center
Mon 01:37:11 PM 36.7183 -80.0194 229° Southwest 394 453 26,000  Level Atlanta Center
Mon 01:38:11 PM 36.6467 -80.1242 230° Southwest 394 453 26,000  Level Atlanta Center
Mon 01:39:11 PM 36.5747 -80.2283 229° Southwest 394 453 26,000 -200 Level Atlanta Center
Mon 01:40:11 PM 36.4728 -80.3056 211° Southwest 394 453 25,600 -700 Descending Atlanta Center
Mon 01:41:11 PM 36.3553 -80.3444 195° South 403 464 24,600 -950 Descending Atlanta Center
Mon 01:42:11 PM 36.2375 -80.3833 195° South 420 483 23,700 -950 Descending Atlanta Center
Mon 01:43:11 PM 36.1217 -80.4219 195° South 432 497 22,700 -1,000 Descending Atlanta Center
Mon 01:44:11 PM 36.0206 -80.4575 196° South 437 503 21,700 -950 Descending Atlanta Center
Mon 01:45:11 PM 35.9094 -80.5058 199° South 431 496 20,800 -850 Descending Atlanta Center
Mon 01:46:11 PM 35.8311 -80.6117 228° Southwest 412 474 20,000 -400 Descending Atlanta Center
Mon 01:47:11 PM 35.7628 -80.7067 228° Southwest 402 463 20,000  Level Atlanta Center
Mon 01:48:11 PM 35.6839 -80.8019 224° Southwest 372 428 20,000 -150 Level Atlanta Center
Mon 01:49:11 PM 35.6133 -80.8967 228° Southwest 366 421 19,700 -1,150 Descending Atlanta Center
Mon 01:50:11 PM 35.5428 -80.9889 227° Southwest 366 421 17,700 -2,415 Descending Atlanta Center
Mon 01:50:33 PM 35.5186 -81.0306 235° Southwest 387 445 16,400 -3,100 Descending Atlanta Center
Mon 01:51:11 PM 35.4719 -81.0833 223° Southwest 371 427 14,600 -2,328 Descending Atlanta Center
Mon 01:51:40 PM 35.4464 -81.1453 243° Southwest 356 410 13,800 -1,200 Descending Atlanta Center
Mon 01:52:11 PM 35.4225 -81.1944 239° Southwest 376 433 13,400 -689 Descending Atlanta Center
Mon 01:52:41 PM 35.3944 -81.2439 235° Southwest 350 403 13,100 -400 Descending Atlanta Center
Mon 01:53:11 PM 35.3686 -81.3008 241° Southwest 371 427 13,000 -111 Descending Atlanta Center
Mon 01:53:35 PM 35.3483 -81.3347 234° Southwest 344 396 13,000 -600 Level Atlanta Center
Mon 01:54:11 PM 35.3142 -81.3867 231° Southwest 357 411 12,400 -1,125 Descending Atlanta Center
Mon 01:55:11 PM 35.2642 -81.4900 239° Southwest 351 404 11,200 -1,200 Descending Atlanta Center
Mon 01:56:11 PM 35.2097 -81.5933 237° Southwest 351 404 10,000 -600 Descending Atlanta Center
Mon 01:57:11 PM 35.1617 -81.6836 237° Southwest 351 404 10,000 -500 Level Atlanta Center
Mon 01:58:11 PM 35.1317 -81.7633 245° Southwest 308 354 9,000 -1,450 Descending Atlanta Center
Mon 01:59:11 PM 35.1019 -81.8378 244° Southwest 267 307 7,100 -1,950 Descending Atlanta Center
Mon 02:00:11 PM 35.0719 -81.9122 244° Southwest 252 290 5,100 -1,550 Descending Atlanta Center
Mon 02:01:11 PM 35.0419 -81.9889 244° Southwest 252 290 4,000 -1,100 Descending Atlanta Center
Mon 02:03:00 PM 34.9250 -82.1459 244° Southwest  Level FlightAware Approximate
Mon 02:10:00 PM 34.8833 -82.2167 231° Southwest  Level FlightAware Approximate
Mon 02:11:00 PM 34.8957 -82.2189 231° Southwest  Level Estimated
Mon 02:12:00 PM 34.8957 -82.2189 231° Southwest  Level Estimated
Mon 02:13:00 PM 34.8957 -82.2189 231° Southwest  Level Estimated

Login

Don't have an account? Register now (free) for customized features, flight alerts, and more!